Randolph, South Dakota
Current Conditions -  °F | °C
As of 12:04 PM on Sunday 21 Dec 2014 (Local Time) from KABR Reporting Station
Haze Haze  
Wind Chill: 22°   Ceiling: 200
Heat Index: 32°   Visibility: 3mi
Dew Point: 30°   Wind: 15mph
Humidity: 92%   Direction: 160°SSE
Pressure: 29.6"   Gusts: NA
Location:  45.2844°N, 98.2863°W
Report Text: KABR 211804Z AUTO 16013KT 3SM BR OVC002 00/M01 A2960 RMK AO2 T00001011
Loading
Personal Weather Stations






























Interactive Weather Map New forecast layout! Learn more

10-Day Weather Forecast

Advertisements
Track Severe Weather on mobile